createdAt,value
2023-05-05T00:01:46.613Z,98025.03
2023-05-05T00:06:49.051Z,98020.44
2023-05-05T00:11:50.904Z,98015.59
2023-05-05T00:16:52.778Z,98015.50
2023-05-05T00:21:54.619Z,98009.69
2023-05-05T00:26:56.444Z,98009.81
2023-05-05T00:31:58.251Z,97998.00
2023-05-05T00:37:00.104Z,97992.91
2023-05-05T00:42:01.958Z,97991.47
2023-05-05T00:47:04.261Z,97992.69
2023-05-05T00:52:07.503Z,97990.00
2023-05-05T00:57:10.937Z,97987.31
2023-05-05T01:02:13.010Z,97986.78
2023-05-05T01:07:39.620Z,97992.47
2023-05-05T01:12:44.329Z,97992.78
2023-05-05T01:17:56.015Z,97981.25
2023-05-05T01:23:03.939Z,97976.78
2023-05-05T01:28:19.639Z,97973.25
2023-05-05T01:33:27.498Z,97970.69
2023-05-05T01:38:44.612Z,97965.84
2023-05-05T01:43:50.366Z,97965.28
2023-05-05T01:48:53.846Z,97966.25
2023-05-05T01:53:59.321Z,97955.13
2023-05-05T01:59:02.471Z,97959.56
2023-05-05T02:04:07.177Z,97953.31
2023-05-05T02:09:12.141Z,97957.94
2023-05-05T02:14:15.435Z,97956.56
2023-05-05T02:19:21.511Z,97951.03
2023-05-05T02:24:25.500Z,97960.97
2023-05-05T02:29:34.654Z,97966.00
2023-05-05T02:34:40.356Z,97969.13
2023-05-05T02:39:58.432Z,97967.78
2023-05-05T02:45:10.365Z,97957.34
2023-05-05T02:50:18.757Z,97964.53
2023-05-05T02:55:42.341Z,97959.38
2023-05-05T03:01:18.879Z,97958.97
2023-05-05T03:06:22.892Z,97952.59
2023-05-05T03:11:34.618Z,97953.00
2023-05-05T03:16:42.632Z,97954.22
2023-05-05T03:21:45.826Z,97947.69
2023-05-05T03:26:49.969Z,97945.53
2023-05-05T03:31:55.354Z,97945.53
2023-05-05T03:36:57.380Z,97946.59
2023-05-05T03:41:59.618Z,97947.28
2023-05-05T03:47:05.597Z,97944.88
2023-05-05T03:52:10.105Z,97946.19
2023-05-05T03:57:13.039Z,97952.31
2023-05-05T04:02:18.491Z,97951.34
2023-05-05T04:07:22.788Z,97950.69
2023-05-05T04:12:25.040Z,97961.81
2023-05-05T04:17:27.595Z,97958.41
2023-05-05T04:22:30.205Z,97952.56
2023-05-05T04:27:32.754Z,97956.63
2023-05-05T04:32:35.533Z,97959.59
2023-05-05T04:37:37.651Z,97962.44
2023-05-05T04:42:39.885Z,97965.13
2023-05-05T04:47:41.878Z,97973.91
2023-05-05T04:52:43.891Z,97963.53
2023-05-05T04:57:45.794Z,97975.97
2023-05-05T05:02:47.747Z,97970.72
2023-05-05T05:07:49.661Z,97962.94
2023-05-05T05:12:51.573Z,97967.34
2023-05-05T05:17:53.700Z,97958.34
2023-05-05T05:22:55.694Z,97965.44
2023-05-05T05:28:08.852Z,97963.81
2023-05-05T05:33:15.090Z,97970.69
2023-05-05T05:38:18.140Z,97955.53
2023-05-05T05:43:21.358Z,97954.94
2023-05-05T05:48:25.107Z,97954.44
2023-05-05T05:53:27.595Z,97956.03
2023-05-05T05:58:30.300Z,97966.38
2023-05-05T06:03:32.548Z,97960.44
2023-05-05T06:08:34.507Z,97962.59
2023-05-05T06:13:36.522Z,97963.28
2023-05-05T06:18:39.147Z,97958.94
2023-05-05T06:23:42.204Z,97962.19
2023-05-05T06:28:44.268Z,97963.00
2023-05-05T06:33:46.093Z,97975.00
2023-05-05T06:38:47.896Z,97963.31
2023-05-05T06:43:49.743Z,97972.47
2023-05-05T06:48:51.895Z,97970.34
2023-05-05T06:53:53.787Z,97959.09
2023-05-05T06:58:55.895Z,97974.63
2023-05-05T07:03:57.754Z,97977.25
2023-05-05T07:08:59.567Z,97970.91
2023-05-05T07:14:01.421Z,97955.53
2023-05-05T07:19:06.242Z,97961.41
2023-05-05T07:24:08.236Z,97965.91
2023-05-05T07:29:10.014Z,97957.47
2023-05-05T07:34:11.870Z,97960.66
2023-05-05T07:39:15.334Z,97968.31
2023-05-05T07:44:17.157Z,97962.25
2023-05-05T07:49:20.112Z,97963.34
2023-05-05T07:54:21.907Z,97962.47
2023-05-05T07:59:23.754Z,97956.47
2023-05-05T08:04:25.700Z,97950.84
2023-05-05T08:09:27.528Z,97959.97
2023-05-05T08:14:30.032Z,97954.81
2023-05-05T08:19:31.865Z,97954.56
2023-05-05T08:24:33.700Z,97950.75
2023-05-05T08:29:35.713Z,97945.13
2023-05-05T08:34:37.530Z,97950.09
2023-05-05T08:39:39.328Z,97951.28
2023-05-05T08:44:41.281Z,97958.63
2023-05-05T08:49:47.207Z,97958.72
2023-05-05T08:55:00.865Z,97956.47
2023-05-05T09:00:03.865Z,97953.50
2023-05-05T09:05:07.318Z,97945.22
2023-05-05T09:10:11.169Z,97939.72
2023-05-05T09:15:14.719Z,97938.28
2023-05-05T09:20:16.725Z,97929.16
2023-05-05T09:25:18.971Z,97938.06
2023-05-05T09:30:25.221Z,97936.13
2023-05-05T09:35:27.161Z,97929.25
2023-05-05T09:40:48.372Z,97933.09
2023-05-05T09:45:51.247Z,97932.38
2023-05-05T09:50:53.440Z,97930.69
2023-05-05T09:55:59.957Z,97931.88
2023-05-05T10:01:01.803Z,97927.06
2023-05-05T10:06:04.710Z,97930.03
2023-05-05T10:11:07.243Z,97922.16
2023-05-05T10:16:11.766Z,97909.59
2023-05-05T10:21:19.975Z,97899.69
2023-05-05T10:26:23.425Z,97901.88
2023-05-05T10:31:33.895Z,97900.91
2023-05-05T10:36:38.577Z,97901.66
2023-05-05T10:41:41.472Z,97890.81
2023-05-05T10:46:44.696Z,97885.69
2023-05-05T10:51:55.601Z,97888.38
2023-05-05T10:56:59.095Z,97878.28
2023-05-05T11:02:01.167Z,97875.03
2023-05-05T11:07:12.469Z,97870.56
2023-05-05T11:12:16.421Z,97866.59
2023-05-05T11:17:46.941Z,97867.75
2023-05-05T11:23:04.186Z,97864.81
2023-05-05T11:28:09.358Z,97861.53
2023-05-05T11:33:33.239Z,97858.41
2023-05-05T11:38:44.251Z,97856.06
2023-05-05T11:43:46.337Z,97846.88
2023-05-05T11:48:49.344Z,97854.34
2023-05-05T11:53:51.219Z,97848.41
2023-05-05T11:59:10.180Z,97847.69
2023-05-05T12:04:13.223Z,97851.09
2023-05-05T12:09:23.022Z,97844.03
2023-05-05T12:14:25.762Z,97835.56
2023-05-05T12:19:33.375Z,97828.91
2023-05-05T12:24:35.471Z,97824.09
2023-05-05T12:29:38.143Z,97812.31
2023-05-05T12:34:40.104Z,97818.03
2023-05-05T12:39:41.998Z,97809.78
2023-05-05T12:44:44.924Z,97813.34
2023-05-05T12:49:47.511Z,97803.84
2023-05-05T12:54:56.254Z,97805.03
2023-05-05T12:59:58.395Z,97813.44
2023-05-05T13:05:00.236Z,97806.19
2023-05-05T13:10:10.877Z,97795.47
2023-05-05T13:15:12.849Z,97789.47
2023-05-05T13:20:14.693Z,97780.19
2023-05-05T13:25:16.703Z,97771.44
2023-05-05T13:30:18.621Z,97773.19
2023-05-05T13:35:20.548Z,97767.81
2023-05-05T13:40:23.820Z,97761.13
2023-05-05T13:45:27.589Z,97749.28
2023-05-05T13:50:29.533Z,97734.47
2023-05-05T13:55:31.533Z,97738.66
2023-05-05T14:00:34.744Z,97725.44
2023-05-05T14:05:38.833Z,97722.38
2023-05-05T14:10:40.698Z,97719.94
2023-05-05T14:15:42.639Z,97708.13
2023-05-05T14:20:44.501Z,97698.97
2023-05-05T14:25:46.417Z,97701.34
2023-05-05T14:30:48.270Z,97688.94
2023-05-05T14:35:50.203Z,97689.75
2023-05-05T14:40:52.068Z,97688.31
2023-05-05T14:45:53.971Z,97680.78
2023-05-05T14:50:56.004Z,97669.91
2023-05-05T14:55:57.824Z,97668.81
2023-05-05T15:01:00.570Z,97670.41
2023-05-05T15:06:02.537Z,97666.72
2023-05-05T15:11:04.713Z,97660.75
2023-05-05T15:16:10.110Z,97651.91
2023-05-05T15:21:11.984Z,97653.16
2023-05-05T15:26:13.849Z,97648.97
2023-05-05T15:31:15.767Z,97649.63
2023-05-05T15:36:22.618Z,97645.56
2023-05-05T15:41:27.213Z,97643.56
2023-05-05T15:46:33.249Z,97635.16
2023-05-05T15:51:35.263Z,97644.88
2023-05-05T15:56:37.159Z,97645.91
2023-05-05T16:01:39.158Z,97650.50
2023-05-05T16:06:41.178Z,97652.63
2023-05-05T16:11:43.355Z,97650.88
2023-05-05T16:16:45.214Z,97655.38
2023-05-05T16:21:48.241Z,97661.63
2023-05-05T16:26:50.110Z,97673.50
2023-05-05T16:31:52.104Z,97664.13
2023-05-05T16:36:53.965Z,97687.28
2023-05-05T16:41:55.779Z,97678.69
2023-05-05T16:46:58.399Z,97689.66
2023-05-05T16:52:00.367Z,97691.06
2023-05-05T16:57:03.830Z,97682.25
2023-05-05T17:02:06.107Z,97679.72
2023-05-05T17:07:07.986Z,97675.53
2023-05-05T17:12:09.910Z,97660.19
2023-05-05T17:17:12.063Z,97657.09
2023-05-05T17:22:13.883Z,97653.31
2023-05-05T17:27:15.676Z,97659.44
2023-05-05T17:32:17.561Z,97668.50
2023-05-05T17:37:19.409Z,97669.13
2023-05-05T17:42:23.093Z,97681.81
2023-05-05T17:47:25.106Z,97688.06
2023-05-05T17:52:27.087Z,97706.47
2023-05-05T17:57:28.945Z,97697.59
2023-05-05T18:02:30.958Z,97695.00
2023-05-05T18:07:33.725Z,97707.28
2023-05-05T18:12:35.783Z,97693.28
2023-05-05T18:17:38.064Z,97683.16
2023-05-05T18:22:39.978Z,97684.38
2023-05-05T18:27:41.891Z,97695.88
2023-05-05T18:32:43.918Z,97685.03
2023-05-05T18:37:45.822Z,97683.59
2023-05-05T18:42:47.698Z,97692.28
2023-05-05T18:47:49.580Z,97689.66
2023-05-05T18:52:51.465Z,97679.78
2023-05-05T18:57:53.478Z,97675.16
2023-05-05T19:02:55.345Z,97677.41
2023-05-05T19:07:57.232Z,97665.72
2023-05-05T19:12:59.266Z,97668.53
2023-05-05T19:18:01.296Z,97661.28
2023-05-05T19:23:05.229Z,97662.50
2023-05-05T19:28:07.168Z,97657.88
2023-05-05T19:33:09.219Z,97657.88
2023-05-05T19:38:11.226Z,97654.44
2023-05-05T19:43:13.191Z,97663.94
2023-05-05T19:48:15.793Z,97660.31
2023-05-05T19:53:17.661Z,97666.50
2023-05-05T19:58:19.624Z,97667.53
2023-05-05T20:03:21.627Z,97665.53
2023-05-05T20:08:23.535Z,97670.16
2023-05-05T20:13:25.401Z,97670.16
2023-05-05T20:18:27.276Z,97663.13
2023-05-05T20:23:29.175Z,97662.94
2023-05-05T20:28:31.779Z,97658.91
2023-05-05T20:33:34.439Z,97658.13
2023-05-05T20:38:36.303Z,97663.75
2023-05-05T20:43:41.043Z,97665.31
2023-05-05T20:48:44.503Z,97675.78
2023-05-05T20:53:46.387Z,97687.47
2023-05-05T20:58:48.358Z,97686.28
2023-05-05T21:03:50.528Z,97674.00
2023-05-05T21:08:52.373Z,97657.84
2023-05-05T21:13:54.216Z,97672.16
2023-05-05T21:18:56.159Z,97707.75
2023-05-05T21:23:58.062Z,97720.41
2023-05-05T21:28:59.933Z,97721.75
2023-05-05T21:34:02.532Z,97720.69
2023-05-05T21:39:04.659Z,97722.50
2023-05-05T21:44:06.543Z,97725.56
2023-05-05T21:49:26.512Z,97728.69
2023-05-05T21:54:28.362Z,97720.25
2023-05-05T21:59:30.189Z,97729.25
2023-05-05T22:04:32.016Z,97727.00
2023-05-05T22:09:34.053Z,97722.75
2023-05-05T22:14:36.066Z,97721.72
2023-05-05T22:19:37.868Z,97719.47
2023-05-05T22:24:39.676Z,97725.84
2023-05-05T22:29:41.555Z,97719.78
2023-05-05T22:34:43.375Z,97726.19
2023-05-05T22:39:45.146Z,97724.13
2023-05-05T22:44:47.092Z,97734.38
2023-05-05T22:49:49.122Z,97727.69
2023-05-05T22:54:51.023Z,97725.50
2023-05-05T22:59:53.004Z,97719.66
2023-05-05T23:04:54.896Z,97716.88
2023-05-05T23:09:56.720Z,97724.13
2023-05-05T23:14:58.632Z,97710.06
2023-05-05T23:20:00.502Z,97702.63
2023-05-05T23:25:02.306Z,97716.81
2023-05-05T23:30:04.498Z,97712.44
2023-05-05T23:35:06.950Z,97711.94
2023-05-05T23:40:09.267Z,97697.47
2023-05-05T23:45:11.712Z,97696.03
2023-05-05T23:50:13.777Z,97689.69
2023-05-05T23:55:15.564Z,97695.88
